createdAt,value
2022-09-21T00:00:44.522Z,97.79
2022-09-21T00:06:08.348Z,98.14
2022-09-21T00:11:01.270Z,97.73
2022-09-21T00:16:01.241Z,98.04
2022-09-21T00:21:01.152Z,97.99
2022-09-21T00:26:01.067Z,98.08
2022-09-21T00:31:01.073Z,98.50
2022-09-21T00:36:00.903Z,98.29
2022-09-21T00:41:00.851Z,98.75
2022-09-21T00:46:00.837Z,98.96
2022-09-21T00:51:00.731Z,98.44
2022-09-21T00:56:00.651Z,98.65
2022-09-21T01:01:00.661Z,98.44
2022-09-21T01:06:00.542Z,98.33
2022-09-21T01:11:00.498Z,98.28
2022-09-21T01:16:00.487Z,98.79
2022-09-21T01:21:00.336Z,99.21
2022-09-21T01:26:00.255Z,98.49
2022-09-21T01:31:00.187Z,98.07
2022-09-21T01:36:00.110Z,98.84
2022-09-21T01:41:00.096Z,98.74
2022-09-21T01:46:00.024Z,99.99
2022-09-21T01:50:59.928Z,99.99
2022-09-21T01:55:59.847Z,99.99
2022-09-21T02:00:59.955Z,99.93
2022-09-21T02:05:59.729Z,99.99
2022-09-21T02:10:59.647Z,99.99
2022-09-21T02:15:59.631Z,99.99
2022-09-21T02:20:59.552Z,99.99
2022-09-21T02:25:59.551Z,99.99
2022-09-21T02:30:59.459Z,99.99
2022-09-21T02:35:59.346Z,99.99
2022-09-21T02:40:59.250Z,99.99
2022-09-21T02:45:59.171Z,99.99
2022-09-21T02:50:59.145Z,99.99
2022-09-21T02:55:59.056Z,99.99
2022-09-21T03:00:59.042Z,99.99
2022-09-21T03:05:59.006Z,99.99
2022-09-21T03:10:58.842Z,99.99
2022-09-21T03:15:58.793Z,99.99
2022-09-21T03:20:58.698Z,99.99
2022-09-21T03:25:58.645Z,99.99
2022-09-21T03:30:58.684Z,99.99
2022-09-21T03:35:59.986Z,99.99
2022-09-21T03:40:58.464Z,99.99
2022-09-21T03:45:58.603Z,99.99
2022-09-21T03:50:58.319Z,99.99
2022-09-21T03:55:58.228Z,99.99
2022-09-21T04:00:58.185Z,99.99
2022-09-21T04:05:58.115Z,99.99
2022-09-21T04:10:58.015Z,99.99
2022-09-21T04:16:07.581Z,99.99
2022-09-21T04:20:59.935Z,99.99
2022-09-21T04:25:59.957Z,99.99
2022-09-21T04:30:59.839Z,99.99
2022-09-21T04:35:59.767Z,99.99
2022-09-21T04:40:59.739Z,99.99
2022-09-21T04:45:59.660Z,99.99
2022-09-21T04:50:59.641Z,99.99
2022-09-21T04:55:59.588Z,99.99
2022-09-21T05:00:59.431Z,99.99
2022-09-21T05:05:59.357Z,99.99
2022-09-21T05:10:59.260Z,99.99
2022-09-21T05:15:59.254Z,99.99
2022-09-21T05:20:59.195Z,99.99
2022-09-21T05:25:59.106Z,99.99
2022-09-21T05:31:16.815Z,99.99
2022-09-21T05:35:59.942Z,99.99
2022-09-21T05:40:58.912Z,99.99
2022-09-21T05:45:58.923Z,99.99
2022-09-21T05:50:58.809Z,99.99
2022-09-21T05:55:58.677Z,99.99
2022-09-21T06:00:58.696Z,99.99
2022-09-21T06:05:58.570Z,99.99
2022-09-21T06:10:58.453Z,99.99
2022-09-21T06:15:58.510Z,99.99
2022-09-21T06:20:59.334Z,99.99
2022-09-21T06:25:58.884Z,99.99
2022-09-21T06:30:58.308Z,99.99
2022-09-21T06:35:58.198Z,99.99
2022-09-21T06:40:58.083Z,99.99
2022-09-21T06:45:58.105Z,99.99
2022-09-21T06:50:57.956Z,99.99
2022-09-21T06:55:57.954Z,99.99
2022-09-21T07:00:58.120Z,99.99
2022-09-21T07:05:57.766Z,99.52
2022-09-21T07:10:57.687Z,99.63
2022-09-21T07:15:57.641Z,99.52
2022-09-21T07:20:57.562Z,99.89
2022-09-21T07:25:57.472Z,98.76
2022-09-21T07:30:57.499Z,98.55
2022-09-21T07:35:57.579Z,99.12
2022-09-21T07:40:57.303Z,99.33
2022-09-21T07:45:57.233Z,97.64
2022-09-21T07:50:57.130Z,97.54
2022-09-21T07:55:57.037Z,97.33
2022-09-21T08:00:57.122Z,97.54
2022-09-21T08:05:56.984Z,97.44
2022-09-21T08:10:56.902Z,97.80
2022-09-21T08:15:56.796Z,97.39
2022-09-21T08:20:56.737Z,96.94
2022-09-21T08:25:56.699Z,95.40
2022-09-21T08:30:56.617Z,96.53
2022-09-21T08:35:56.527Z,94.99
2022-09-21T08:40:56.477Z,95.34
2022-09-21T08:45:56.396Z,96.83
2022-09-21T08:50:56.364Z,94.89
2022-09-21T08:55:56.252Z,94.54
2022-09-21T09:00:56.211Z,92.50
2022-09-21T09:05:56.111Z,90.72
2022-09-21T09:10:56.052Z,92.11
2022-09-21T09:15:56.058Z,90.70
2022-09-21T09:20:55.936Z,90.59
2022-09-21T09:25:55.891Z,87.73
2022-09-21T09:30:55.829Z,89.28
2022-09-21T09:35:55.753Z,87.35
2022-09-21T09:40:55.665Z,86.12
2022-09-21T09:45:55.665Z,86.55
2022-09-21T09:50:55.509Z,83.34
2022-09-21T09:55:55.480Z,75.35
2022-09-21T10:00:55.366Z,73.83
2022-09-21T10:05:55.438Z,74.81
2022-09-21T10:10:55.317Z,64.06
2022-09-21T10:15:55.317Z,59.22
2022-09-21T10:20:55.090Z,58.65
2022-09-21T10:25:55.140Z,58.45
2022-09-21T10:30:55.047Z,55.69
2022-09-21T10:35:55.010Z,54.12
2022-09-21T10:40:54.843Z,56.31
2022-09-21T10:45:55.006Z,50.97
2022-09-21T10:50:54.688Z,53.41
2022-09-21T10:56:11.804Z,52.81
2022-09-21T11:00:55.612Z,51.47
2022-09-21T11:05:54.584Z,50.52
2022-09-21T11:10:54.467Z,49.16
2022-09-21T11:15:54.513Z,51.03
2022-09-21T11:20:54.337Z,49.93
2022-09-21T11:25:54.222Z,50.78
2022-09-21T11:30:54.198Z,47.28
2022-09-21T11:35:54.069Z,46.92
2022-09-21T11:40:54.065Z,48.49
2022-09-21T11:45:54.028Z,45.61
2022-09-21T11:50:53.984Z,49.58
2022-09-21T11:55:53.828Z,47.66
2022-09-21T12:00:53.875Z,45.57
2022-09-21T12:05:53.743Z,46.00
2022-09-21T12:10:53.630Z,45.52
2022-09-21T12:15:53.595Z,47.19
2022-09-21T12:20:53.493Z,46.45
2022-09-21T12:25:53.428Z,46.37
2022-09-21T12:30:54.601Z,49.88
2022-09-21T12:35:53.369Z,47.61
2022-09-21T12:40:53.219Z,47.14
2022-09-21T12:45:53.194Z,48.13
2022-09-21T12:50:53.079Z,46.58
2022-09-21T12:55:53.116Z,47.63
2022-09-21T13:00:53.114Z,48.27
2022-09-21T13:05:52.939Z,50.92
2022-09-21T13:10:55.099Z,51.50
2022-09-21T13:15:52.743Z,48.25
2022-09-21T13:20:52.672Z,49.17
2022-09-21T13:25:52.625Z,46.92
2022-09-21T13:30:52.540Z,49.72
2022-09-21T13:35:52.465Z,51.79
2022-09-21T13:40:52.422Z,52.67
2022-09-21T13:45:52.412Z,49.37
2022-09-21T13:50:52.301Z,46.41
2022-09-21T13:55:52.203Z,50.73
2022-09-21T14:00:52.331Z,50.27
2022-09-21T14:05:52.167Z,59.17
2022-09-21T14:10:52.005Z,60.64
2022-09-21T14:15:52.021Z,65.51
2022-09-21T14:20:51.864Z,67.60
2022-09-21T14:25:51.803Z,69.45
2022-09-21T14:30:51.736Z,68.26
2022-09-21T14:35:51.954Z,68.26
2022-09-21T14:40:51.596Z,70.49
2022-09-21T14:45:51.689Z,66.24
2022-09-21T14:50:51.575Z,71.67
2022-09-21T14:55:51.384Z,66.58
2022-09-21T15:00:51.417Z,65.31
2022-09-21T15:05:51.287Z,54.48
2022-09-21T15:10:55.120Z,55.66
2022-09-21T15:15:51.177Z,56.17
2022-09-21T15:20:51.125Z,56.37
2022-09-21T15:25:51.009Z,56.77
2022-09-21T15:30:50.910Z,54.28
2022-09-21T15:35:50.844Z,59.09
2022-09-21T15:40:50.839Z,53.07
2022-09-21T15:45:50.704Z,55.90
2022-09-21T15:50:50.632Z,60.24
2022-09-21T15:55:50.593Z,60.16
2022-09-21T16:00:50.562Z,61.83
2022-09-21T16:05:50.454Z,63.55
2022-09-21T16:10:50.379Z,63.08
2022-09-21T16:15:50.336Z,63.51
2022-09-21T16:20:50.241Z,61.82
2022-09-21T16:25:50.410Z,62.02
2022-09-21T16:30:50.168Z,63.17
2022-09-21T16:35:50.101Z,65.50
2022-09-21T16:40:49.977Z,67.14
2022-09-21T16:45:49.892Z,69.17
2022-09-21T16:50:49.832Z,71.94
2022-09-21T16:55:49.771Z,71.06
2022-09-21T17:00:54.685Z,69.57
2022-09-21T17:05:49.671Z,70.62
2022-09-21T17:10:49.595Z,73.09
2022-09-21T17:15:49.549Z,72.01
2022-09-21T17:20:49.743Z,72.52
2022-09-21T17:25:49.370Z,71.94
2022-09-21T17:30:49.353Z,72.08
2022-09-21T17:35:49.276Z,72.78
2022-09-21T17:40:50.575Z,73.33
2022-09-21T17:45:49.116Z,73.57
2022-09-21T17:50:49.023Z,73.47
2022-09-21T17:55:48.989Z,73.50
2022-09-21T18:00:48.909Z,74.21
2022-09-21T18:05:48.831Z,74.52
2022-09-21T18:10:48.764Z,74.45
2022-09-21T18:15:48.724Z,74.15
2022-09-21T18:20:48.617Z,74.18
2022-09-21T18:25:48.552Z,75.51
2022-09-21T18:30:48.528Z,78.66
2022-09-21T18:35:48.400Z,80.23
2022-09-21T18:40:48.454Z,82.75
2022-09-21T18:45:48.247Z,82.89
2022-09-21T18:50:48.341Z,83.34
2022-09-21T18:55:48.190Z,84.61
2022-09-21T19:00:48.162Z,84.30
2022-09-21T19:05:48.082Z,85.97
2022-09-21T19:10:47.960Z,86.83
2022-09-21T19:16:00.513Z,86.73
2022-09-21T19:20:48.800Z,86.43
2022-09-21T19:25:49.861Z,85.50
2022-09-21T19:30:47.724Z,83.46
2022-09-21T19:35:47.605Z,83.01
2022-09-21T19:40:47.608Z,81.58
2022-09-21T19:45:47.497Z,82.09
2022-09-21T19:50:47.428Z,84.14
2022-09-21T19:55:47.348Z,82.70
2022-09-21T20:00:49.217Z,82.95
2022-09-21T20:05:47.203Z,85.40
2022-09-21T20:10:47.129Z,85.40
2022-09-21T20:15:47.122Z,85.81
2022-09-21T20:20:46.988Z,86.46
2022-09-21T20:25:46.901Z,87.79
2022-09-21T20:30:46.895Z,87.94
2022-09-21T20:35:46.806Z,88.56
2022-09-21T20:40:46.831Z,88.24
2022-09-21T20:45:46.730Z,88.59
2022-09-21T20:50:46.564Z,88.70
2022-09-21T20:55:46.518Z,89.72
2022-09-21T21:00:46.554Z,89.92
2022-09-21T21:05:46.489Z,90.28
2022-09-21T21:10:46.374Z,90.48
2022-09-21T21:15:46.269Z,90.28
2022-09-21T21:20:46.220Z,90.52
2022-09-21T21:25:46.112Z,91.44
2022-09-21T21:30:46.021Z,91.75
2022-09-21T21:35:46.005Z,92.51
2022-09-21T21:40:45.984Z,93.02
2022-09-21T21:45:45.877Z,92.21
2022-09-21T21:50:45.791Z,92.82
2022-09-21T21:55:45.706Z,91.28
2022-09-21T22:00:45.662Z,91.69
2022-09-21T22:05:45.598Z,90.87
2022-09-21T22:10:45.500Z,91.53
2022-09-21T22:15:45.444Z,92.04
2022-09-21T22:20:45.434Z,92.97
2022-09-21T22:25:45.333Z,92.19
2022-09-21T22:30:45.236Z,92.50
2022-09-21T22:35:45.185Z,93.63
2022-09-21T22:40:45.159Z,93.52
2022-09-21T22:45:45.120Z,92.19
2022-09-21T22:50:44.983Z,93.01
2022-09-21T22:55:44.924Z,92.50
2022-09-21T23:00:44.866Z,92.74
2022-09-21T23:05:44.762Z,93.57
2022-09-21T23:10:44.708Z,93.20
2022-09-21T23:15:44.750Z,94.33
2022-09-21T23:20:44.575Z,93.30
2022-09-21T23:25:44.524Z,94.02
2022-09-21T23:30:44.443Z,93.65
2022-09-21T23:35:44.403Z,93.76
2022-09-21T23:40:44.397Z,93.65
2022-09-21T23:45:44.269Z,94.42
2022-09-21T23:50:44.189Z,94.83
2022-09-21T23:55:44.134Z,95.45
